LELN/LEN METAR and TAF weather

Enter ICAO airport designator
Station Type Date Time Source
LELN METAR 2022/06/25 23:00 UTC NOAA

LELN 252300Z AUTO 30005KT CAVOK 08/05 Q1015


Station Type Date Time Source
LELN Decoded METAR 2022/06/25 23:00 UTC NOAA

Leon / Virgen Del Camino, Spain (LELN) 42-35N 005-39W 914M
Jun 25, 2022 - 07:00 PM EDT / 2022.06.25 2300 UTC
Wind: from the WNW (300 degrees) at 6 MPH (5 KT):0
Visibility: greater than 7 mile(s):0
Temperature: 46 F (8 C)
Dew Point: 41 F (5 C)
Relative Humidity: 81%
Pressure (altimeter): 29.97 in. Hg (1015 hPa)
ob: LELN 252300Z AUTO 30005KT CAVOK 08/05 Q1015
cycle: 23

Station Type Date Time Source
LELN TAF 2022/06/25 21:27 UTC NOAA

TAF LELN 252000Z 2521/2621 VRB05KT 9999 SCT035 TX19/2616Z TN10/2605Z PROB40
TEMPO 2600/2618 RA PROB30
TEMPO 2600/2609 BKN012
BECMG 2616/2618 02012KT

Example: see airport list